sensor_id;sensor_type;location;lat;lon;timestamp;pressure;altitude;pressure_sealevel;temperature;humidity
788;BME280;16074;42.708;23.312;2023-10-09T00:00:13;142914.81;;;19.03;82.29
788;BME280;16074;42.708;23.312;2023-10-09T00:03:10;142891.78;;;18.93;82.62
788;BME280;16074;42.708;23.312;2023-10-09T00:05:40;142884.50;;;18.90;82.94
788;BME280;16074;42.708;23.312;2023-10-09T00:08:15;142890.59;;;18.93;83.01
788;BME280;16074;42.708;23.312;2023-10-09T00:10:49;142873.63;;;18.86;83.13
788;BME280;16074;42.708;23.312;2023-10-09T00:13:21;142867.53;;;18.83;83.37
788;BME280;16074;42.708;23.312;2023-10-09T00:15:55;142852.97;;;18.77;83.46
788;BME280;16074;42.708;23.312;2023-10-09T00:18:29;142845.69;;;18.74;83.58
788;BME280;16074;42.708;23.312;2023-10-09T00:21:00;142860.25;;;18.80;83.34
788;BME280;16074;42.708;23.312;2023-10-09T00:23:38;142833.59;;;18.69;83.72
788;BME280;16074;42.708;23.312;2023-10-09T00:26:07;142819.03;;;18.63;84.05
788;BME280;16074;42.708;23.312;2023-10-09T00:28:49;142794.75;;;18.53;84.63
788;BME280;16074;42.708;23.312;2023-10-09T00:31:18;142781.41;;;18.48;85.10
788;BME280;16074;42.708;23.312;2023-10-09T00:33:58;142771.69;;;18.44;85.39
788;BME280;16074;42.708;23.312;2023-10-09T00:36:45;142760.78;;;18.39;85.28
788;BME280;16074;42.708;23.312;2023-10-09T00:39:18;142759.59;;;18.39;85.49
788;BME280;16074;42.708;23.312;2023-10-09T00:42:07;142707.38;;;18.17;86.33
788;BME280;16074;42.708;23.312;2023-10-09T00:44:39;142703.75;;;18.16;86.67
788;BME280;16074;42.708;23.312;2023-10-09T00:47:10;142675.88;;;18.04;87.41
788;BME280;16074;42.708;23.312;2023-10-09T00:49:53;142678.31;;;18.05;86.93
788;BME280;16074;42.708;23.312;2023-10-09T00:52:29;142663.75;;;17.99;87.60
788;BME280;16074;42.708;23.312;2023-10-09T00:55:05;142635.84;;;17.88;87.41
788;BME280;16074;42.708;23.312;2023-10-09T00:57:43;142629.81;;;17.86;87.19
788;BME280;16074;42.708;23.312;2023-10-09T01:00:17;142603.13;;;17.75;87.73
788;BME280;16074;42.708;23.312;2023-10-09T01:03:00;142592.25;;;17.70;87.43
788;BME280;16074;42.708;23.312;2023-10-09T01:05:49;142537.72;;;17.48;88.79
788;BME280;16074;42.708;23.312;2023-10-09T01:08:25;142494.03;;;17.30;88.79
788;BME280;16074;42.708;23.312;2023-10-09T01:10:57;142472.22;;;17.21;89.44
788;BME280;16074;42.708;23.312;2023-10-09T01:13:36;142468.63;;;17.19;88.63
788;BME280;16074;42.708;23.312;2023-10-09T01:16:20;142452.84;;;17.13;89.11
788;BME280;16074;42.708;23.312;2023-10-09T01:18:51;142466.19;;;17.18;88.74
788;BME280;16074;42.708;23.312;2023-10-09T01:21:21;142433.44;;;17.05;89.27
788;BME280;16074;42.708;23.312;2023-10-09T01:23:53;142397.16;;;16.90;89.98
788;BME280;16074;42.708;23.312;2023-10-09T01:26:33;142399.56;;;16.91;90.30
788;BME280;16074;42.708;23.312;2023-10-09T01:29:07;142417.72;;;16.98;89.64
788;BME280;16074;42.708;23.312;2023-10-09T01:31:37;142383.81;;;16.84;90.00
788;BME280;16074;42.708;23.312;2023-10-09T01:34:10;142405.59;;;16.93;88.68
788;BME280;16074;42.708;23.312;2023-10-09T01:36:42;142392.31;;;16.88;88.50
788;BME280;16074;42.708;23.312;2023-10-09T01:39:11;142374.13;;;16.80;88.94
788;BME280;16074;42.708;23.312;2023-10-09T01:41:51;142377.78;;;16.82;88.56
788;BME280;16074;42.708;23.312;2023-10-09T01:44:26;142349.94;;;16.71;89.51
788;BME280;16074;42.708;23.312;2023-10-09T01:46:57;142335.41;;;16.65;89.64
788;BME280;16074;42.708;23.312;2023-10-09T01:49:25;142311.16;;;16.55;89.36
788;BME280;16074;42.708;23.312;2023-10-09T01:51:59;142312.34;;;16.55;88.91
788;BME280;16074;42.708;23.312;2023-10-09T01:54:36;142314.78;;;16.56;88.22
788;BME280;16074;42.708;23.312;2023-10-09T01:57:06;142283.28;;;16.43;88.70
788;BME280;16074;42.708;23.312;2023-10-09T01:59:36;142286.94;;;16.45;88.59
788;BME280;16074;42.708;23.312;2023-10-09T02:02:11;142272.41;;;16.39;88.77
788;BME280;16074;42.708;23.312;2023-10-09T02:04:55;142240.88;;;16.26;89.64
788;BME280;16074;42.708;23.312;2023-10-09T02:07:33;142227.59;;;16.20;90.04
788;BME280;16074;42.708;23.312;2023-10-09T02:10:11;142242.13;;;16.26;90.25
788;BME280;16074;42.708;23.312;2023-10-09T02:12:48;142242.13;;;16.26;90.22
788;BME280;16074;42.708;23.312;2023-10-09T02:15:21;142219.09;;;16.17;90.67
788;BME280;16074;42.708;23.312;2023-10-09T02:18:08;142190.09;;;16.05;91.29
788;BME280;16074;42.708;23.312;2023-10-09T02:20:47;142161.03;;;15.93;92.83
788;BME280;16074;42.708;23.312;2023-10-09T02:23:23;142167.06;;;15.95;92.65
788;BME280;16074;42.708;23.312;2023-10-09T02:25:58;142113.84;;;15.73;94.16
788;BME280;16074;42.708;23.312;2023-10-09T02:28:32;142088.41;;;15.63;94.65
788;BME280;16074;42.708;23.312;2023-10-09T02:31:01;142047.31;;;15.46;96.18
788;BME280;16074;42.708;23.312;2023-10-09T02:33:38;142054.59;;;15.49;96.21
788;BME280;16074;42.708;23.312;2023-10-09T02:36:08;142044.91;;;15.45;95.75
788;BME280;16074;42.708;23.312;2023-10-09T02:38:40;142015.88;;;15.33;96.70
788;BME280;16074;42.708;23.312;2023-10-09T02:41:10;142013.44;;;15.32;96.78
788;BME280;16074;42.708;23.312;2023-10-09T02:43:55;141996.47;;;15.25;97.64
788;BME280;16074;42.708;23.312;2023-10-09T02:46:25;142006.19;;;15.29;96.61
788;BME280;16074;42.708;23.312;2023-10-09T02:49:01;141949.31;;;15.06;98.92
788;BME280;16074;42.708;23.312;2023-10-09T02:51:36;141943.25;;;15.03;98.85
788;BME280;16074;42.708;23.312;2023-10-09T02:54:09;141939.63;;;15.02;99.28
788;BME280;16074;42.708;23.312;2023-10-09T02:56:55;141920.28;;;14.94;99.77
788;BME280;16074;42.708;23.312;2023-10-09T02:59:24;141865.88;;;14.71;100.00
788;BME280;16074;42.708;23.312;2023-10-09T03:01:52;141865.88;;;14.71;100.00
788;BME280;16074;42.708;23.312;2023-10-09T03:04:21;141865.88;;;14.71;100.00
788;BME280;16074;42.708;23.312;2023-10-09T03:06:51;141874.34;;;14.75;100.00
788;BME280;16074;42.708;23.312;2023-10-09T03:09:24;141874.34;;;14.75;100.00
788;BME280;16074;42.708;23.312;2023-10-09T03:11:59;141836.88;;;14.59;100.00
788;BME280;16074;42.708;23.312;2023-10-09T03:14:31;141784.91;;;14.38;100.00
788;BME280;16074;42.708;23.312;2023-10-09T03:17:02;141786.16;;;14.38;100.00
788;BME280;16074;42.708;23.312;2023-10-09T03:19:32;141804.25;;;14.46;100.00
788;BME280;16074;42.708;23.312;2023-10-09T03:22:05;141731.78;;;14.16;100.00
788;BME280;16074;42.708;23.312;2023-10-09T03:24:37;141737.81;;;14.19;100.00
788;BME280;16074;42.708;23.312;2023-10-09T03:27:07;141730.56;;;14.16;100.00
788;BME280;16074;42.708;23.312;2023-10-09T03:29:36;141709.97;;;14.07;100.00
788;BME280;16074;42.708;23.312;2023-10-09T03:32:04;141691.84;;;14.00;100.00
788;BME280;16074;42.708;23.312;2023-10-09T03:34:33;141690.66;;;13.99;100.00
788;BME280;16074;42.708;23.312;2023-10-09T03:37:02;141703.91;;;14.05;100.00
788;BME280;16074;42.708;23.312;2023-10-09T03:39:38;141699.09;;;14.03;100.00
788;BME280;16074;42.708;23.312;2023-10-09T03:42:09;141705.16;;;14.05;100.00
788;BME280;16074;42.708;23.312;2023-10-09T03:44:46;141697.91;;;14.02;100.00
788;BME280;16074;42.708;23.312;2023-10-09T03:47:19;141668.91;;;13.90;100.00
788;BME280;16074;42.708;23.312;2023-10-09T03:49:49;141662.88;;;13.88;100.00
788;BME280;16074;42.708;23.312;2023-10-09T03:52:21;141613.31;;;13.67;100.00
788;BME280;16074;42.708;23.312;2023-10-09T03:54:53;141603.66;;;13.63;100.00
788;BME280;16074;42.708;23.312;2023-10-09T03:57:23;141606.06;;;13.64;100.00
788;BME280;16074;42.708;23.312;2023-10-09T03:59:52;141601.25;;;13.62;100.00
788;BME280;16074;42.708;23.312;2023-10-09T04:02:22;141583.16;;;13.55;100.00
788;BME280;16074;42.708;23.312;2023-10-09T04:04:51;141567.47;;;13.48;100.00
788;BME280;16074;42.708;23.312;2023-10-09T04:07:20;141545.75;;;13.39;100.00
788;BME280;16074;42.708;23.312;2023-10-09T04:09:48;141557.81;;;13.44;100.00
788;BME280;16074;42.708;23.312;2023-10-09T04:12:38;141556.59;;;13.44;100.00
788;BME280;16074;42.708;23.312;2023-10-09T04:15:07;141578.31;;;13.53;100.00
788;BME280;16074;42.708;23.312;2023-10-09T04:17:42;141551.75;;;13.42;100.00
788;BME280;16074;42.708;23.312;2023-10-09T04:20:10;141527.59;;;13.32;100.00
788;BME280;16074;42.708;23.312;2023-10-09T04:23:07;141520.41;;;13.29;100.00
788;BME280;16074;42.708;23.312;2023-10-09T04:25:43;141516.75;;;13.27;100.00
788;BME280;16074;42.708;23.312;2023-10-09T04:28:13;141511.94;;;13.25;100.00
788;BME280;16074;42.708;23.312;2023-10-09T04:30:47;141509.50;;;13.24;100.00
788;BME280;16074;42.708;23.312;2023-10-09T04:33:21;141484.19;;;13.14;100.00
788;BME280;16074;42.708;23.312;2023-10-09T04:36:10;141478.13;;;13.11;100.00
788;BME280;16074;42.708;23.312;2023-10-09T04:38:52;141460.03;;;13.04;100.00
788;BME280;16074;42.708;23.312;2023-10-09T04:41:34;141496.25;;;13.19;100.00
788;BME280;16074;42.708;23.312;2023-10-09T04:44:20;141498.66;;;13.20;100.00
788;BME280;16074;42.708;23.312;2023-10-09T04:46:51;141497.44;;;13.19;100.00
788;BME280;16074;42.708;23.312;2023-10-09T04:49:41;141470.88;;;13.08;100.00
788;BME280;16074;42.708;23.312;2023-10-09T04:52:18;141469.69;;;13.08;100.00
788;BME280;16074;42.708;23.312;2023-10-09T04:54:46;141468.47;;;13.07;100.00
788;BME280;16074;42.708;23.312;2023-10-09T04:57:29;141463.63;;;13.06;100.00
788;BME280;16074;42.708;23.312;2023-10-09T05:00:07;141444.34;;;12.98;100.00
788;BME280;16074;42.708;23.312;2023-10-09T05:02:49;141461.22;;;13.05;100.00
788;BME280;16074;42.708;23.312;2023-10-09T05:05:22;141452.78;;;13.01;100.00
788;BME280;16074;42.708;23.312;2023-10-09T05:08:05;141457.63;;;13.03;98.92
788;BME280;16074;42.708;23.312;2023-10-09T05:10:46;141458.78;;;13.04;99.17
788;BME280;16074;42.708;23.312;2023-10-09T05:13:33;141482.94;;;13.13;98.05
788;BME280;16074;42.708;23.312;2023-10-09T05:16:20;141481.75;;;13.13;95.87
788;BME280;16074;42.708;23.312;2023-10-09T05:18:54;141462.44;;;13.05;94.20
788;BME280;16074;42.708;23.312;2023-10-09T05:21:26;141463.63;;;13.06;94.42
788;BME280;16074;42.708;23.312;2023-10-09T05:24:12;141462.44;;;13.05;93.55
788;BME280;16074;42.708;23.312;2023-10-09T05:26:50;141463.63;;;13.06;92.20
788;BME280;16074;42.708;23.312;2023-10-09T05:29:19;141499.84;;;13.20;91.68
788;BME280;16074;42.708;23.312;2023-10-09T05:32:04;141509.50;;;13.24;90.86
788;BME280;16074;42.708;23.312;2023-10-09T05:34:43;141517.97;;;13.28;89.52
788;BME280;16074;42.708;23.312;2023-10-09T05:37:28;141519.16;;;13.28;88.03
788;BME280;16074;42.708;23.312;2023-10-09T05:40:02;141539.69;;;13.37;87.78
788;BME280;16074;42.708;23.312;2023-10-09T05:42:49;141560.22;;;13.45;86.32
788;BME280;16074;42.708;23.312;2023-10-09T05:45:30;141561.41;;;13.46;84.85
788;BME280;16074;42.708;23.312;2023-10-09T05:48:32;141562.66;;;13.46;84.01
788;BME280;16074;42.708;23.312;2023-10-09T05:51:18;141567.47;;;13.48;83.62
788;BME280;16074;42.708;23.312;2023-10-09T05:54:04;141584.38;;;13.55;82.89
788;BME280;16074;42.708;23.312;2023-10-09T05:56:50;141607.31;;;13.65;82.66
788;BME280;16074;42.708;23.312;2023-10-09T05:59:32;141633.88;;;13.76;82.30
788;BME280;16074;42.708;23.312;2023-10-09T06:02:18;141668.91;;;13.90;81.61
788;BME280;16074;42.708;23.312;2023-10-09T06:05:06;141697.91;;;14.02;79.46
788;BME280;16074;42.708;23.312;2023-10-09T06:07:54;141714.81;;;14.09;78.04
788;BME280;16074;42.708;23.312;2023-10-09T06:10:34;141758.31;;;14.27;77.75
788;BME280;16074;42.708;23.312;2023-10-09T06:13:08;141789.75;;;14.40;75.51
788;BME280;16074;42.708;23.312;2023-10-09T06:15:51;141793.41;;;14.41;72.88
788;BME280;16074;42.708;23.312;2023-10-09T06:18:36;141835.69;;;14.59;72.03
788;BME280;16074;42.708;23.312;2023-10-09T06:21:11;141884.00;;;14.79;69.73
788;BME280;16074;42.708;23.312;2023-10-09T06:23:55;141921.50;;;14.94;68.33
788;BME280;16074;42.708;23.312;2023-10-09T06:26:44;141960.19;;;15.10;66.41
788;BME280;16074;42.708;23.312;2023-10-09T06:29:32;141989.22;;;15.22;64.20
788;BME280;16074;42.708;23.312;2023-10-09T06:32:02;142021.88;;;15.36;62.05
788;BME280;16074;42.708;23.312;2023-10-09T06:34:51;142020.72;;;15.35;59.63
788;BME280;16074;42.708;23.312;2023-10-09T06:37:21;142061.84;;;15.52;59.61
788;BME280;16074;42.708;23.312;2023-10-09T06:40:01;142142.91;;;15.85;58.03
788;BME280;16074;42.708;23.312;2023-10-09T06:43:11;142282.09;;;16.43;55.72
788;BME280;16074;42.708;23.312;2023-10-09T06:45:44;142335.41;;;16.65;53.64
788;BME280;16074;42.708;23.312;2023-10-09T06:48:13;142414.13;;;16.97;53.12
788;BME280;16074;42.708;23.312;2023-10-09T06:51:02;142496.47;;;17.31;51.93
788;BME280;16074;42.708;23.312;2023-10-09T06:53:36;142569.19;;;17.61;50.01
788;BME280;16074;42.708;23.312;2023-10-09T06:56:23;142548.59;;;17.52;49.19
788;BME280;16074;42.708;23.312;2023-10-09T06:58:53;142587.41;;;17.68;48.46
788;BME280;16074;42.708;23.312;2023-10-09T07:01:22;142497.69;;;17.31;48.21
788;BME280;16074;42.708;23.312;2023-10-09T07:04:10;142634.66;;;17.88;48.08
788;BME280;16074;42.708;23.312;2023-10-09T07:06:46;142697.69;;;18.13;46.95
788;BME280;16074;42.708;23.312;2023-10-09T07:09:20;142658.91;;;17.98;46.46
788;BME280;16074;42.708;23.312;2023-10-09T07:11:49;142766.84;;;18.42;45.97
788;BME280;16074;42.708;23.312;2023-10-09T07:14:31;142765.66;;;18.41;44.66
788;BME280;16074;42.708;23.312;2023-10-09T07:17:17;142707.38;;;18.17;45.34
788;BME280;16074;42.708;23.312;2023-10-09T07:19:53;142681.94;;;18.07;45.04
788;BME280;16074;42.708;23.312;2023-10-09T07:22:38;142755.94;;;18.37;44.54
788;BME280;16074;42.708;23.312;2023-10-09T07:25:24;142906.34;;;18.99;43.71
788;BME280;16074;42.708;23.312;2023-10-09T07:27:59;142998.63;;;19.37;41.94
788;BME280;16074;42.708;23.312;2023-10-09T07:30:29;143027.75;;;19.49;41.26
788;BME280;16074;42.708;23.312;2023-10-09T07:33:06;142819.03;;;18.63;41.40
788;BME280;16074;42.708;23.312;2023-10-09T07:35:45;142810.50;;;18.60;41.98
788;BME280;16074;42.708;23.312;2023-10-09T07:38:17;142936.69;;;19.12;40.25
788;BME280;16074;42.708;23.312;2023-10-09T07:40:49;142986.47;;;19.32;38.69
788;BME280;16074;42.708;23.312;2023-10-09T07:43:24;143103.03;;;19.80;38.11
788;BME280;16074;42.708;23.312;2023-10-09T07:45:56;143234.25;;;20.34;37.62
788;BME280;16074;42.708;23.312;2023-10-09T07:48:42;143260.94;;;20.44;36.90
788;BME280;16074;42.708;23.312;2023-10-09T07:51:19;143311.97;;;20.65;37.11
788;BME280;16074;42.708;23.312;2023-10-09T07:53:50;143291.34;;;20.57;37.26
788;BME280;16074;42.708;23.312;2023-10-09T07:56:25;143339.91;;;20.77;37.30
788;BME280;16074;42.708;23.312;2023-10-09T07:58:57;143409.25;;;21.05;36.73
788;BME280;16074;42.708;23.312;2023-10-09T08:01:27;143495.56;;;21.41;35.92
788;BME280;16074;42.708;23.312;2023-10-09T08:04:03;143597.72;;;21.82;34.86
788;BME280;16074;42.708;23.312;2023-10-09T08:06:38;143516.25;;;21.49;34.38
788;BME280;16074;42.708;23.312;2023-10-09T08:09:07;143567.34;;;21.70;34.78
788;BME280;16074;42.708;23.312;2023-10-09T08:11:54;143591.66;;;21.80;34.40
788;BME280;16074;42.708;23.312;2023-10-09T08:15:02;143690.22;;;22.20;33.88
788;BME280;16074;42.708;23.312;2023-10-09T08:17:51;143691.41;;;22.21;33.69
788;BME280;16074;42.708;23.312;2023-10-09T08:20:21;143768.13;;;22.52;33.45
788;BME280;16074;42.708;23.312;2023-10-09T08:22:53;143886.19;;;23.00;32.68
788;BME280;16074;42.708;23.312;2023-10-09T08:25:24;143706.00;;;22.27;32.84
788;BME280;16074;42.708;23.312;2023-10-09T08:27:58;143358.22;;;20.84;34.72
788;BME280;16074;42.708;23.312;2023-10-09T08:30:47;143512.59;;;21.48;34.46
788;BME280;16074;42.708;23.312;2023-10-09T08:33:17;143457.88;;;21.25;33.69
788;BME280;16074;42.708;23.312;2023-10-09T08:36:23;143453.00;;;21.23;34.17
788;BME280;16074;42.708;23.312;2023-10-09T08:38:59;143470.03;;;21.30;33.68
788;BME280;16074;42.708;23.312;2023-10-09T08:41:41;143468.78;;;21.30;34.09
788;BME280;16074;42.708;23.312;2023-10-09T08:44:12;143535.66;;;21.57;34.32
788;BME280;16074;42.708;23.312;2023-10-09T08:46:42;143532.03;;;21.56;33.34
788;BME280;16074;42.708;23.312;2023-10-09T08:49:12;143554.00;;;21.65;32.88
788;BME280;16074;42.708;23.312;2023-10-09T08:51:41;143636.66;;;21.98;33.09
788;BME280;16074;42.708;23.312;2023-10-09T08:54:09;143639.09;;;21.99;32.49
788;BME280;16074;42.708;23.312;2023-10-09T08:56:42;143697.53;;;22.23;30.37
788;BME280;16074;42.708;23.312;2023-10-09T08:59:19;143734.03;;;22.38;30.89
788;BME280;16074;42.708;23.312;2023-10-09T09:01:48;143760.81;;;22.49;31.35
788;BME280;16074;42.708;23.312;2023-10-09T09:04:35;143820.44;;;22.74;31.20
788;BME280;16074;42.708;23.312;2023-10-09T09:07:06;143905.72;;;23.08;30.37
788;BME280;16074;42.708;23.312;2023-10-09T09:09:34;143947.09;;;23.25;29.83
788;BME280;16074;42.708;23.312;2023-10-09T09:12:05;143775.41;;;22.55;29.62
788;BME280;16074;42.708;23.312;2023-10-09T09:14:37;143676.81;;;22.15;30.73
788;BME280;16074;42.708;23.312;2023-10-09T09:17:06;143782.72;;;22.58;30.88
788;BME280;16074;42.708;23.312;2023-10-09T09:19:38;143786.41;;;22.60;30.50
788;BME280;16074;42.708;23.312;2023-10-09T09:22:09;143825.31;;;22.76;29.93
788;BME280;16074;42.708;23.312;2023-10-09T09:24:41;143815.56;;;22.72;29.76
788;BME280;16074;42.708;23.312;2023-10-09T09:27:45;143748.63;;;22.44;30.44
788;BME280;16074;42.708;23.312;2023-10-09T09:30:25;143821.69;;;22.74;30.14
788;BME280;16074;42.708;23.312;2023-10-09T09:33:17;143894.69;;;23.04;30.01
788;BME280;16074;42.708;23.312;2023-10-09T09:35:58;143965.41;;;23.33;28.67
788;BME280;16074;42.708;23.312;2023-10-09T09:38:26;143997.06;;;23.46;28.69
788;BME280;16074;42.708;23.312;2023-10-09T09:40:56;144078.72;;;23.79;28.08
788;BME280;16074;42.708;23.312;2023-10-09T09:43:31;144107.94;;;23.91;28.29
788;BME280;16074;42.708;23.312;2023-10-09T09:46:04;144150.56;;;24.09;27.96
788;BME280;16074;42.708;23.312;2023-10-09T09:48:37;144188.38;;;24.24;27.97
788;BME280;16074;42.708;23.312;2023-10-09T09:51:12;144153.00;;;24.10;26.81
788;BME280;16074;42.708;23.312;2023-10-09T09:53:42;144068.94;;;23.75;27.29
788;BME280;16074;42.708;23.312;2023-10-09T09:56:32;144022.63;;;23.56;27.12
788;BME280;16074;42.708;23.312;2023-10-09T09:59:02;144049.44;;;23.67;27.78
788;BME280;16074;42.708;23.312;2023-10-09T10:01:37;144138.44;;;24.04;27.81
788;BME280;16074;42.708;23.312;2023-10-09T10:04:10;144192.00;;;24.25;26.95
788;BME280;16074;42.708;23.312;2023-10-09T10:06:43;144224.91;;;24.39;26.32
788;BME280;16074;42.708;23.312;2023-10-09T10:09:35;144342.03;;;24.87;26.33
788;BME280;16074;42.708;23.312;2023-10-09T10:12:06;144233.47;;;24.42;26.10
788;BME280;16074;42.708;23.312;2023-10-09T10:14:51;144303.00;;;24.71;25.94
788;BME280;16074;42.708;23.312;2023-10-09T10:17:22;144363.94;;;24.96;26.40
788;BME280;16074;42.708;23.312;2023-10-09T10:20:05;144410.34;;;25.15;25.90
788;BME280;16074;42.708;23.312;2023-10-09T10:22:50;144476.22;;;25.42;24.66
788;BME280;16074;42.708;23.312;2023-10-09T10:25:40;144525.00;;;25.61;25.02
788;BME280;16074;42.708;23.312;2023-10-09T10:28:19;144603.16;;;25.93;24.88
788;BME280;16074;42.708;23.312;2023-10-09T10:31:06;144684.94;;;26.27;24.57
788;BME280;16074;42.708;23.312;2023-10-09T10:34:06;144700.78;;;26.33;24.45
788;BME280;16074;42.708;23.312;2023-10-09T10:36:38;144702.03;;;26.34;24.41
788;BME280;16074;42.708;23.312;2023-10-09T10:39:10;144667.84;;;26.20;24.46
788;BME280;16074;42.708;23.312;2023-10-09T10:41:39;144617.81;;;25.99;23.93
788;BME280;16074;42.708;23.312;2023-10-09T10:44:27;144715.44;;;26.39;23.90
788;BME280;16074;42.708;23.312;2023-10-09T10:47:06;144725.22;;;26.43;23.81
788;BME280;16074;42.708;23.312;2023-10-09T10:49:51;144764.34;;;26.59;24.16
788;BME280;16074;42.708;23.312;2023-10-09T10:52:26;144814.41;;;26.79;23.65
788;BME280;16074;42.708;23.312;2023-10-09T10:55:11;144771.66;;;26.62;24.20
788;BME280;16074;42.708;23.312;2023-10-09T10:57:45;144840.03;;;26.90;23.98
788;BME280;16074;42.708;23.312;2023-10-09T11:00:28;144935.31;;;27.29;24.44
788;BME280;16074;42.708;23.312;2023-10-09T11:03:29;144957.34;;;27.38;23.64
788;BME280;16074;42.708;23.312;2023-10-09T11:06:04;145011.09;;;27.60;23.53
788;BME280;16074;42.708;23.312;2023-10-09T11:08:46;145049.03;;;27.75;24.03
788;BME280;16074;42.708;23.312;2023-10-09T11:11:22;145069.78;;;27.84;23.63
788;BME280;16074;42.708;23.312;2023-10-09T11:13:50;145064.91;;;27.82;23.54
788;BME280;16074;42.708;23.312;2023-10-09T11:16:23;145085.72;;;27.90;23.55
788;BME280;16074;42.708;23.312;2023-10-09T11:19:10;145166.38;;;28.23;23.38
788;BME280;16074;42.708;23.312;2023-10-09T11:21:58;145222.66;;;28.46;22.90
788;BME280;16074;42.708;23.312;2023-10-09T11:24:48;145225.13;;;28.47;22.77
788;BME280;16074;42.708;23.312;2023-10-09T11:27:28;145190.88;;;28.33;23.07
788;BME280;16074;42.708;23.312;2023-10-09T11:30:00;145238.56;;;28.52;22.74
788;BME280;16074;42.708;23.312;2023-10-09T11:32:37;145242.25;;;28.54;23.09
788;BME280;16074;42.708;23.312;2023-10-09T11:35:11;145199.41;;;28.36;22.68
788;BME280;16074;42.708;23.312;2023-10-09T11:37:42;145259.38;;;28.61;22.58
788;BME280;16074;42.708;23.312;2023-10-09T11:40:29;145310.69;;;28.82;22.36
788;BME280;16074;42.708;23.312;2023-10-09T11:43:18;145342.56;;;28.95;22.00
788;BME280;16074;42.708;23.312;2023-10-09T11:45:50;145341.31;;;28.94;22.77
788;BME280;16074;42.708;23.312;2023-10-09T11:48:23;145393.97;;;29.16;21.84
788;BME280;16074;42.708;23.312;2023-10-09T11:51:00;145417.19;;;29.25;22.06
788;BME280;16074;42.708;23.312;2023-10-09T11:53:43;145341.31;;;28.94;21.99
788;BME280;16074;42.708;23.312;2023-10-09T11:56:13;145362.13;;;29.03;22.13
788;BME280;16074;42.708;23.312;2023-10-09T11:58:43;145304.59;;;28.79;21.92
788;BME280;16074;42.708;23.312;2023-10-09T12:01:17;145155.38;;;28.18;22.50
788;BME280;16074;42.708;23.312;2023-10-09T12:03:47;145156.59;;;28.19;22.80
788;BME280;16074;42.708;23.312;2023-10-09T12:06:19;145177.44;;;28.27;23.24
788;BME280;16074;42.708;23.312;2023-10-09T12:08:51;145126.03;;;28.06;22.78
788;BME280;16074;42.708;23.312;2023-10-09T12:11:21;145192.06;;;28.33;22.72
788;BME280;16074;42.708;23.312;2023-10-09T12:13:56;145198.22;;;28.36;22.64
788;BME280;16074;42.708;23.312;2023-10-09T12:16:28;145234.91;;;28.51;22.77
788;BME280;16074;42.708;23.312;2023-10-09T12:19:00;145278.91;;;28.69;21.64
788;BME280;16074;42.708;23.312;2023-10-09T12:21:29;145347.47;;;28.97;21.99
788;BME280;16074;42.708;23.312;2023-10-09T12:23:59;145368.25;;;29.05;21.86
788;BME280;16074;42.708;23.312;2023-10-09T12:26:28;145378.03;;;29.09;21.46
788;BME280;16074;42.708;23.312;2023-10-09T12:29:02;145426.97;;;29.29;21.53
788;BME280;16074;42.708;23.312;2023-10-09T12:31:38;145501.69;;;29.59;21.34
788;BME280;16074;42.708;23.312;2023-10-09T12:34:07;145523.72;;;29.68;21.05
788;BME280;16074;42.708;23.312;2023-10-09T12:36:35;145469.84;;;29.46;21.35
788;BME280;16074;42.708;23.312;2023-10-09T12:39:06;145518.81;;;29.66;20.99
788;BME280;16074;42.708;23.312;2023-10-09T12:41:35;145446.56;;;29.37;21.27
788;BME280;16074;42.708;23.312;2023-10-09T12:44:08;145507.78;;;29.62;21.18
788;BME280;16074;42.708;23.312;2023-10-09T12:46:42;145534.72;;;29.73;20.74
788;BME280;16074;42.708;23.312;2023-10-09T12:49:19;145529.81;;;29.71;21.01
788;BME280;16074;42.708;23.312;2023-10-09T12:51:52;145562.84;;;29.84;20.78
788;BME280;16074;42.708;23.312;2023-10-09T12:54:22;145587.34;;;29.94;20.87
788;BME280;16074;42.708;23.312;2023-10-09T12:56:54;145629.03;;;30.11;20.89
788;BME280;16074;42.708;23.312;2023-10-09T12:59:23;145655.97;;;30.22;20.75
788;BME280;16074;42.708;23.312;2023-10-09T13:01:51;145657.16;;;30.23;20.53
788;BME280;16074;42.708;23.312;2023-10-09T13:04:24;145685.31;;;30.34;20.93
788;BME280;16074;42.708;23.312;2023-10-09T13:06:59;145686.56;;;30.35;20.54
788;BME280;16074;42.708;23.312;2023-10-09T13:09:32;145701.25;;;30.41;20.53
788;BME280;16074;42.708;23.312;2023-10-09T13:12:03;145696.38;;;30.39;19.96
788;BME280;16074;42.708;23.312;2023-10-09T13:14:32;145753.97;;;30.62;19.77
788;BME280;16074;42.708;23.312;2023-10-09T13:17:01;145821.34;;;30.89;19.30
788;BME280;16074;42.708;23.312;2023-10-09T13:19:36;145820.09;;;30.89;19.35
788;BME280;16074;42.708;23.312;2023-10-09T13:22:04;145823.78;;;30.90;19.33
788;BME280;16074;42.708;23.312;2023-10-09T13:24:41;145822.53;;;30.90;18.89
788;BME280;16074;42.708;23.312;2023-10-09T13:27:10;145791.94;;;30.77;18.99
788;BME280;16074;42.708;23.312;2023-10-09T13:29:38;145724.50;;;30.50;18.97
788;BME280;16074;42.708;23.312;2023-10-09T13:32:08;145753.97;;;30.62;18.63
788;BME280;16074;42.708;23.312;2023-10-09T13:34:42;145713.50;;;30.46;18.90
788;BME280;16074;42.708;23.312;2023-10-09T13:37:12;145627.78;;;30.11;19.12
788;BME280;16074;42.708;23.312;2023-10-09T13:39:47;145669.41;;;30.28;18.96
788;BME280;16074;42.708;23.312;2023-10-09T13:42:20;145670.66;;;30.28;18.99
788;BME280;16074;42.708;23.312;2023-10-09T13:44:52;145679.22;;;30.32;19.05